Time;durP1;ratioP1;P1;durP2;ratioP2;P2;SDS_P1;SDS_P2;PMS_P1;PMS_P2;Temp;Humidity;BMP_temperature;BMP_pressure;BME280_temperature;BME280_humidity;BME280_pressure;Samples;Min_cycle;Max_cycle;Signal;HPM_P1;HPM_P2
2023/04/08 00:00:10;;;;;;;28.55;12.38;;;8.20;99.90;;;;;;5088587;28;20491;-60
2023/04/08 00:02:37;;;;;;;23.20;12.35;;;8.20;99.90;;;;;;5088857;28;20126;-60
2023/04/08 00:05:05;;;;;;;18.15;10.35;;;8.20;99.90;;;;;;5087918;28;20059;-61
2023/04/08 00:07:32;;;;;;;21.13;11.35;;;8.20;99.90;;;;;;5080099;28;20048;-60
2023/04/08 00:09:59;;;;;;;23.83;11.63;;;8.20;99.90;;;;;;5088328;28;20051;-61
2023/04/08 00:12:26;;;;;;;23.50;12.93;;;8.10;99.90;;;;;;5087925;28;20195;-60
2023/04/08 00:14:52;;;;;;;20.70;11.70;;;8.10;99.90;;;;;;5087601;28;20051;-60
2023/04/08 00:17:20;;;;;;;23.05;12.93;;;8.10;99.90;;;;;;5087478;28;20067;-61
2023/04/08 00:19:46;;;;;;;24.92;12.00;;;8.10;99.90;;;;;;5088155;28;20135;-60
2023/04/08 00:22:13;;;;;;;20.20;11.68;;;8.00;99.90;;;;;;5085818;28;20524;-60
2023/04/08 00:24:40;;;;;;;24.73;12.63;;;8.00;99.90;;;;;;5087436;28;20528;-60
2023/04/08 00:27:06;;;;;;;22.05;11.77;;;7.90;99.90;;;;;;5088092;28;20058;-59
2023/04/08 00:29:33;;;;;;;21.10;11.52;;;7.80;99.90;;;;;;5086177;28;20075;-60
2023/04/08 00:32:00;;;;;;;21.60;11.35;;;7.80;99.90;;;;;;5086901;28;20044;-59
2023/04/08 00:34:27;;;;;;;22.13;11.80;;;7.80;99.90;;;;;;5087230;28;20044;-60
2023/04/08 00:36:53;;;;;;;21.65;12.60;;;7.80;99.90;;;;;;5087969;28;20048;-60
2023/04/08 00:39:20;;;;;;;17.70;11.10;;;7.80;99.90;;;;;;5086515;28;20054;-63
2023/04/08 00:41:47;;;;;;;18.35;11.55;;;7.80;99.90;;;;;;5083302;28;20063;-61
2023/04/08 00:44:14;;;;;;;19.52;11.13;;;7.80;99.90;;;;;;5089280;28;20050;-61
2023/04/08 00:46:40;;;;;;;17.85;11.07;;;7.80;99.90;;;;;;5088878;28;20047;-60
2023/04/08 00:49:07;;;;;;;21.83;11.55;;;7.80;99.90;;;;;;5089493;28;20055;-60
2023/04/08 00:51:37;;;;;;;18.15;10.10;;;7.70;99.90;;;;;;5088867;28;20036;-60
2023/04/08 00:54:04;;;;;;;23.80;10.85;;;7.70;99.90;;;;;;5096679;28;20050;-60
2023/04/08 00:56:31;;;;;;;18.48;10.23;;;7.70;99.90;;;;;;5087225;28;20044;-60
2023/04/08 00:59:01;;;;;;;18.30;10.20;;;7.70;99.90;;;;;;5087621;28;20117;-60
2023/04/08 01:01:48;;;;;;;18.50;11.45;;;7.70;99.90;;;;;;5087821;28;20044;-60
2023/04/08 01:04:43;;;;;;;21.83;11.23;;;7.70;99.90;;;;;;5088143;28;20044;-60
2023/04/08 01:07:24;;;;;;;18.52;11.82;;;7.50;99.90;;;;;;5089853;28;20043;-60
2023/04/08 01:09:55;;;;;;;17.40;10.98;;;7.60;99.90;;;;;;5082981;28;20109;-60
2023/04/08 01:12:27;;;;;;;19.73;10.85;;;7.40;99.90;;;;;;5086461;28;20478;-59
2023/04/08 01:15:03;;;;;;;18.65;11.27;;;7.40;99.90;;;;;;5086515;28;20135;-60
2023/04/08 01:17:30;;;;;;;26.88;11.05;;;7.40;99.90;;;;;;5084672;28;20089;-60
2023/04/08 01:19:58;;;;;;;23.30;11.68;;;7.40;99.90;;;;;;5087067;28;20074;-60
2023/04/08 01:22:45;;;;;;;24.02;9.73;;;7.30;99.90;;;;;;5086307;28;20084;-60
2023/04/08 01:25:26;;;;;;;18.73;10.00;;;7.30;99.90;;;;;;5091469;28;20111;-59
2023/04/08 01:27:55;;;;;;;16.23;9.75;;;7.30;99.90;;;;;;5072196;28;20131;-60
2023/04/08 01:30:22;;;;;;;24.33;12.55;;;7.20;99.90;;;;;;5088702;28;20060;-59
2023/04/08 01:32:51;;;;;;;27.85;10.55;;;7.30;99.90;;;;;;5087150;28;20516;-59
2023/04/08 01:35:17;;;;;;;24.08;11.52;;;7.20;99.90;;;;;;5088484;28;20075;-60
2023/04/08 01:37:45;;;;;;;20.58;10.73;;;7.20;99.90;;;;;;5088144;28;20086;-60
2023/04/08 01:40:11;;;;;;;21.90;11.70;;;7.20;99.90;;;;;;5076441;28;20052;-59
2023/04/08 01:42:38;;;;;;;23.48;11.20;;;7.20;99.90;;;;;;5086932;28;20112;-61
2023/04/08 01:45:05;;;;;;;22.63;9.90;;;7.20;99.90;;;;;;5068378;28;20180;-61
2023/04/08 01:47:32;;;;;;;18.70;9.05;;;7.20;99.90;;;;;;5079014;28;20491;-60
2023/04/08 01:49:59;;;;;;;27.88;10.20;;;7.10;99.90;;;;;;5068281;28;20044;-60
2023/04/08 01:52:26;;;;;;;20.02;9.85;;;7.00;99.90;;;;;;5083863;28;20394;-60
2023/04/08 01:54:52;;;;;;;26.83;9.90;;;6.90;99.90;;;;;;5070735;28;20128;-60
2023/04/08 01:57:23;;;;;;;17.60;9.60;;;6.90;99.90;;;;;;5087723;28;20047;-59
2023/04/08 01:59:51;;;;;;;17.63;9.55;;;6.80;99.90;;;;;;5075984;28;20050;-59
2023/04/08 02:02:21;;;;;;;23.60;10.32;;;6.80;99.90;;;;;;5099382;28;20051;-59
2023/04/08 02:04:48;;;;;;;16.77;9.18;;;6.70;99.90;;;;;;5087374;28;20557;-59
2023/04/08 02:07:15;;;;;;;17.40;9.57;;;6.60;99.90;;;;;;5088916;28;20044;-59
2023/04/08 02:09:42;;;;;;;18.33;10.05;;;6.60;99.90;;;;;;5087595;28;20490;-60
2023/04/08 02:12:08;;;;;;;22.70;9.30;;;6.60;99.90;;;;;;5095467;28;20586;-60
2023/04/08 02:14:35;;;;;;;18.40;8.88;;;6.60;99.90;;;;;;5088124;28;20586;-60
2023/04/08 02:17:09;;;;;;;21.17;9.57;;;6.60;99.90;;;;;;5088868;28;20306;-59
2023/04/08 02:19:59;;;;;;;22.90;10.52;;;6.60;99.90;;;;;;5087217;28;20227;-65
2023/04/08 02:23:04;;;;;;;25.05;10.80;;;6.50;99.90;;;;;;5082583;28;20554;-60
2023/04/08 02:25:31;;;;;;;21.58;8.93;;;6.40;99.90;;;;;;5087546;28;20044;-60
2023/04/08 02:27:58;;;;;;;17.95;9.38;;;6.40;99.90;;;;;;5070740;28;20495;-60
2023/04/08 02:30:25;;;;;;;13.82;8.82;;;6.40;99.90;;;;;;5067034;28;20491;-61
2023/04/08 02:32:52;;;;;;;15.70;9.73;;;6.40;99.90;;;;;;5069682;28;20419;-61
2023/04/08 02:35:19;;;;;;;17.88;8.32;;;6.40;99.90;;;;;;5086897;28;20122;-59
2023/04/08 02:37:49;;;;;;;16.60;8.60;;;6.40;99.90;;;;;;5088849;28;20188;-61
2023/04/08 02:40:28;;;;;;;19.55;10.07;;;6.30;99.90;;;;;;5088355;28;20047;-59
2023/04/08 02:42:55;;;;;;;19.13;9.57;;;6.30;99.90;;;;;;4734781;28;9999963;-60
2023/04/08 02:45:22;;;;;;;18.02;9.00;;;6.30;99.90;;;;;;5086257;28;20060;-59
2023/04/08 02:47:49;;;;;;;15.75;8.43;;;6.30;99.90;;;;;;5088145;28;20131;-60
2023/04/08 02:50:15;;;;;;;19.08;9.23;;;6.20;99.90;;;;;;5086299;28;20475;-60
2023/04/08 02:52:43;;;;;;;20.35;9.63;;;6.10;99.90;;;;;;5087083;28;20491;-60
2023/04/08 02:55:10;;;;;;;20.65;9.35;;;6.10;99.90;;;;;;5087719;28;20127;-61
2023/04/08 02:57:38;;;;;;;18.92;9.23;;;6.10;99.90;;;;;;5087437;28;20530;-61
2023/04/08 03:00:06;;;;;;;18.55;9.07;;;6.20;99.90;;;;;;5087480;28;20048;-61
2023/04/08 03:02:32;;;;;;;17.40;8.40;;;6.20;99.90;;;;;;5084735;28;20046;-60
2023/04/08 03:05:00;;;;;;;17.67;9.57;;;6.20;99.90;;;;;;5087154;28;20055;-61
2023/04/08 03:07:26;;;;;;;21.00;9.82;;;6.20;99.90;;;;;;5086446;28;20388;-60
2023/04/08 03:09:54;;;;;;;33.22;8.82;;;6.10;99.90;;;;;;5087539;28;20395;-60
2023/04/08 03:12:21;;;;;;;17.08;7.90;;;6.10;99.90;;;;;;5087936;28;20514;-60
2023/04/08 03:14:49;;;;;;;19.10;8.90;;;6.00;99.90;;;;;;5087330;28;20052;-61
2023/04/08 03:17:15;;;;;;;18.30;7.82;;;6.00;99.90;;;;;;5087940;28;20044;-60
2023/04/08 03:19:42;;;;;;;17.90;8.57;;;5.90;99.90;;;;;;5087525;28;20501;-61
2023/04/08 03:22:09;;;;;;;22.73;9.00;;;5.80;99.90;;;;;;5088022;28;20297;-60
2023/04/08 03:24:36;;;;;;;16.42;8.52;;;5.80;99.90;;;;;;5087449;28;20517;-61
2023/04/08 03:27:03;;;;;;;12.65;7.60;;;5.80;99.90;;;;;;5091023;28;20550;-63
2023/04/08 03:29:30;;;;;;;16.88;7.38;;;5.70;99.90;;;;;;5087665;28;20154;-60
2023/04/08 03:31:56;;;;;;;19.00;8.32;;;5.70;99.90;;;;;;5086556;28;20347;-61
2023/04/08 03:34:23;;;;;;;16.15;7.75;;;5.80;99.90;;;;;;5087571;28;20048;-61
2023/04/08 03:36:50;;;;;;;12.73;7.05;;;5.70;99.90;;;;;;5086144;28;20506;-60
2023/04/08 03:39:17;;;;;;;11.70;6.15;;;5.70;99.90;;;;;;5088108;28;20059;-61
2023/04/08 03:41:44;;;;;;;17.30;8.48;;;5.60;99.90;;;;;;5086331;28;20075;-61
2023/04/08 03:44:11;;;;;;;15.05;7.53;;;5.60;99.90;;;;;;5087266;28;20052;-60
2023/04/08 03:46:37;;;;;;;21.48;8.07;;;5.60;99.90;;;;;;5087210;28;20559;-60
2023/04/08 03:49:04;;;;;;;16.58;7.75;;;5.70;99.90;;;;;;5087508;28;20052;-61
2023/04/08 03:51:31;;;;;;;16.17;7.55;;;5.70;99.90;;;;;;5087307;28;20050;-60
2023/04/08 03:53:58;;;;;;;15.68;6.47;;;5.60;99.90;;;;;;5085932;28;20410;-60
2023/04/08 03:56:25;;;;;;;13.35;7.15;;;5.70;99.90;;;;;;5087237;28;20044;-60
2023/04/08 03:58:52;;;;;;;10.63;6.95;;;5.50;99.90;;;;;;5086464;28;20074;-60
2023/04/08 04:01:18;;;;;;;26.15;7.45;;;5.60;99.90;;;;;;5087772;28;20044;-60
2023/04/08 04:03:45;;;;;;;16.10;6.82;;;5.60;99.90;;;;;;5080419;28;20048;-61
2023/04/08 04:06:12;;;;;;;15.02;6.75;;;5.60;99.90;;;;;;5082667;28;20079;-59
2023/04/08 04:08:39;;;;;;;14.05;6.18;;;5.60;99.90;;;;;;5086065;28;20051;-59
2023/04/08 04:11:06;;;;;;;16.77;7.38;;;5.50;99.90;;;;;;5087440;28;20048;-59
2023/04/08 04:13:32;;;;;;;13.27;6.47;;;5.50;99.90;;;;;;5086548;28;20036;-59
2023/04/08 04:15:59;;;;;;;18.50;7.05;;;5.50;99.90;;;;;;5091000;28;20526;-59
2023/04/08 04:18:26;;;;;;;12.48;6.25;;;5.50;99.90;;;;;;5090539;28;20036;-60
2023/04/08 04:20:53;;;;;;;9.15;5.68;;;5.50;99.90;;;;;;5091496;28;20348;-59
2023/04/08 04:23:20;;;;;;;8.88;5.53;;;5.40;99.90;;;;;;5090777;28;20087;-59
2023/04/08 04:25:46;;;;;;;9.80;6.20;;;5.40;99.90;;;;;;5079978;28;20093;-60
2023/04/08 04:28:13;;;;;;;13.20;5.75;;;5.40;99.90;;;;;;5089404;28;20128;-60
2023/04/08 04:30:40;;;;;;;14.68;6.20;;;5.30;99.90;;;;;;5091387;28;20138;-62
2023/04/08 04:33:07;;;;;;;15.30;5.78;;;5.30;99.90;;;;;;5089488;28;20678;-59
2023/04/08 04:35:33;;;;;;;15.63;5.65;;;5.30;99.90;;;;;;5090935;28;20157;-61
2023/04/08 04:38:00;;;;;;;12.27;6.38;;;5.20;99.90;;;;;;5090300;28;20047;-60
2023/04/08 04:40:27;;;;;;;10.88;5.97;;;5.20;99.90;;;;;;5090702;28;20066;-60
2023/04/08 04:42:54;;;;;;;10.35;6.32;;;5.20;99.90;;;;;;5089604;28;20134;-59
2023/04/08 04:45:21;;;;;;;13.35;5.72;;;5.10;99.90;;;;;;5092997;28;20098;-60
2023/04/08 04:47:47;;;;;;;13.93;6.43;;;5.00;99.90;;;;;;5090792;28;20044;-60
2023/04/08 04:50:14;;;;;;;11.73;5.90;;;5.00;99.90;;;;;;5090176;28;20050;-60
2023/04/08 04:52:41;;;;;;;18.08;7.18;;;5.00;99.90;;;;;;5089773;28;20135;-59
2023/04/08 04:55:08;;;;;;;14.50;6.60;;;5.00;99.90;;;;;;5090581;28;20054;-60
2023/04/08 04:57:35;;;;;;;14.10;7.18;;;5.00;99.90;;;;;;5090432;28;20043;-59
2023/04/08 05:00:02;;;;;;;13.80;6.28;;;5.10;99.90;;;;;;5090009;28;20040;-59
2023/04/08 05:02:31;;;;;;;17.15;7.60;;;5.10;99.90;;;;;;5086972;28;20044;-60
2023/04/08 05:04:58;;;;;;;11.82;6.88;;;5.00;99.90;;;;;;5089699;28;20055;-59
2023/04/08 05:07:25;;;;;;;10.93;6.00;;;5.00;99.90;;;;;;5089015;28;20491;-59
2023/04/08 05:09:52;;;;;;;15.75;6.40;;;4.90;99.90;;;;;;5089561;28;20036;-61
2023/04/08 05:12:19;;;;;;;13.43;7.13;;;4.90;99.90;;;;;;5089754;28;20134;-61
2023/04/08 05:14:46;;;;;;;16.67;7.75;;;4.80;99.90;;;;;;5087592;28;20052;-59
2023/04/08 05:17:13;;;;;;;15.98;6.95;;;4.70;99.90;;;;;;5089724;28;20529;-61
2023/04/08 05:19:39;;;;;;;15.07;6.90;;;4.70;99.90;;;;;;5089642;28;20044;-60
2023/04/08 05:22:06;;;;;;;14.07;6.70;;;4.70;99.90;;;;;;5089943;28;20050;-60
2023/04/08 05:24:33;;;;;;;12.35;6.00;;;4.70;99.90;;;;;;5089809;28;20506;-61
2023/04/08 05:27:00;;;;;;;20.23;7.47;;;4.80;99.90;;;;;;5088763;28;20054;-61
2023/04/08 05:29:27;;;;;;;15.80;6.72;;;4.80;99.90;;;;;;5089712;28;20316;-61
2023/04/08 05:31:55;;;;;;;10.88;6.30;;;4.80;99.90;;;;;;5085266;28;20044;-60
2023/04/08 05:34:21;;;;;;;17.02;7.03;;;4.80;99.90;;;;;;5084189;28;20044;-60
2023/04/08 05:36:52;;;;;;;10.60;5.85;;;4.80;99.90;;;;;;5089318;28;20040;-61
2023/04/08 05:39:19;;;;;;;11.93;5.78;;;4.80;99.90;;;;;;5090531;28;20503;-60
2023/04/08 05:41:46;;;;;;;14.90;6.20;;;4.80;99.90;;;;;;5088829;28;20046;-60
2023/04/08 05:44:13;;;;;;;10.43;6.35;;;4.80;99.90;;;;;;5089183;28;20071;-59
2023/04/08 05:46:39;;;;;;;14.02;7.20;;;4.80;99.90;;;;;;5088952;28;20198;-60
2023/04/08 05:49:06;;;;;;;13.30;6.30;;;4.80;99.90;;;;;;5089122;28;20059;-60
2023/04/08 05:51:33;;;;;;;14.68;5.95;;;4.80;99.90;;;;;;5088873;28;20123;-61
2023/04/08 05:54:00;;;;;;;10.93;6.00;;;4.80;99.90;;;;;;5089120;28;20391;-60
2023/04/08 05:56:26;;;;;;;14.07;6.72;;;4.80;99.90;;;;;;5089014;28;20046;-60
2023/04/08 05:58:53;;;;;;;11.15;6.25;;;4.70;99.90;;;;;;5087620;28;20058;-60
2023/04/08 06:01:20;;;;;;;11.35;5.90;;;4.80;99.90;;;;;;5090488;28;20054;-61
2023/04/08 06:03:47;;;;;;;11.75;6.50;;;4.80;99.90;;;;;;5089203;28;20074;-60
2023/04/08 06:06:14;;;;;;;17.20;6.68;;;4.80;99.90;;;;;;5087862;28;20101;-60
2023/04/08 06:08:40;;;;;;;11.40;6.05;;;4.90;99.90;;;;;;4735917;28;10000632;-60
2023/04/08 06:11:07;;;;;;;17.10;8.93;;;4.90;99.90;;;;;;5085983;28;20070;-61
2023/04/08 06:13:34;;;;;;;9.02;5.43;;;4.90;99.90;;;;;;5085124;28;20048;-60
2023/04/08 06:16:14;;;;;;;17.25;7.63;;;5.00;99.90;;;;;;5085268;28;20238;-60
2023/04/08 06:18:42;;;;;;;11.13;6.40;;;5.00;99.90;;;;;;5067863;28;20044;-60
2023/04/08 06:21:09;;;;;;;13.07;5.80;;;4.90;99.90;;;;;;5085589;28;20059;-60
2023/04/08 06:23:36;;;;;;;17.98;6.53;;;5.00;99.90;;;;;;5081993;28;20055;-59
2023/04/08 06:26:03;;;;;;;16.45;6.35;;;5.00;99.90;;;;;;5085572;28;20514;-60
2023/04/08 06:28:30;;;;;;;14.73;6.68;;;5.00;99.90;;;;;;5085514;28;20491;-59
2023/04/08 06:30:58;;;;;;;14.70;7.10;;;5.10;99.90;;;;;;5085300;28;20139;-60
2023/04/08 06:33:24;;;;;;;11.85;7.03;;;5.10;99.90;;;;;;5084046;28;20120;-60
2023/04/08 06:35:51;;;;;;;20.52;8.98;;;5.10;99.90;;;;;;5096428;28;20495;-59
2023/04/08 06:38:18;;;;;;;17.33;7.95;;;5.10;99.90;;;;;;5084937;28;20530;-60
2023/04/08 06:40:45;;;;;;;17.25;7.05;;;5.20;99.90;;;;;;5085205;28;20036;-61
2023/04/08 06:43:11;;;;;;;14.40;7.00;;;5.20;99.90;;;;;;5082678;28;20514;-60
2023/04/08 06:45:38;;;;;;;17.75;7.72;;;5.30;99.90;;;;;;5088468;28;20180;-61
2023/04/08 06:48:07;;;;;;;14.32;7.68;;;5.40;99.90;;;;;;5083610;28;20044;-60
2023/04/08 06:50:34;;;;;;;17.75;8.65;;;5.50;99.90;;;;;;5085216;28;20051;-61
2023/04/08 06:53:01;;;;;;;14.48;7.78;;;5.60;99.90;;;;;;5084894;28;20106;-60
2023/04/08 06:55:28;;;;;;;19.55;7.88;;;5.70;99.90;;;;;;5085337;28;20044;-60
2023/04/08 06:57:54;;;;;;;15.35;7.38;;;5.80;99.90;;;;;;5084780;28;20044;-60
2023/04/08 07:00:21;;;;;;;16.48;8.07;;;5.90;99.90;;;;;;5085194;28;20054;-60
2023/04/08 07:02:48;;;;;;;23.23;8.73;;;6.00;99.90;;;;;;5085881;28;20036;-60
2023/04/08 07:05:15;;;;;;;19.42;8.30;;;6.20;99.90;;;;;;5084996;28;20044;-59
2023/04/08 07:07:42;;;;;;;23.73;12.18;;;6.30;99.90;;;;;;5086744;28;20036;-60
2023/04/08 07:10:09;;;;;;;19.17;9.57;;;6.40;99.90;;;;;;5086291;28;20052;-60
2023/04/08 07:12:36;;;;;;;17.55;8.75;;;6.40;99.90;;;;;;5086337;28;20066;-60
2023/04/08 07:15:04;;;;;;;18.40;8.02;;;6.50;99.90;;;;;;5087983;28;20048;-60
2023/04/08 07:17:31;;;;;;;19.80;10.50;;;6.50;99.90;;;;;;5087462;28;20758;-61
2023/04/08 07:19:58;;;;;;;16.45;8.43;;;6.60;99.90;;;;;;5087382;28;20051;-59
2023/04/08 07:22:24;;;;;;;16.63;7.95;;;6.80;99.90;;;;;;5086250;28;20052;-60
2023/04/08 07:24:51;;;;;;;16.80;7.40;;;6.90;99.90;;;;;;5086893;28;20044;-59
2023/04/08 07:27:18;;;;;;;19.15;7.28;;;7.00;99.90;;;;;;5087506;28;20058;-58
2023/04/08 07:29:45;;;;;;;19.45;7.85;;;7.10;99.90;;;;;;5087103;28;20044;-60
2023/04/08 07:32:12;;;;;;;22.10;8.43;;;7.20;99.90;;;;;;5090450;28;20058;-61
2023/04/08 07:34:38;;;;;;;19.17;8.30;;;7.30;99.90;;;;;;5085649;28;20086;-61
2023/04/08 07:37:05;;;;;;;18.15;8.75;;;7.50;99.90;;;;;;5086991;28;20359;-60
2023/04/08 07:39:32;;;;;;;14.70;8.18;;;7.60;99.90;;;;;;5086434;28;20044;-61
2023/04/08 07:41:58;;;;;;;14.88;7.95;;;7.70;99.90;;;;;;5086778;28;20051;-60
2023/04/08 07:44:25;;;;;;;21.30;6.95;;;7.80;99.90;;;;;;5086419;28;20047;-60
2023/04/08 07:46:52;;;;;;;13.77;6.35;;;7.80;99.90;;;;;;5086620;28;20044;-60
2023/04/08 07:49:19;;;;;;;16.33;7.75;;;8.00;99.90;;;;;;4733094;28;10000511;-61
2023/04/08 07:51:46;;;;;;;15.93;6.55;;;8.10;99.90;;;;;;5088396;28;20135;-61
2023/04/08 07:54:16;;;;;;;18.80;7.50;;;8.20;99.90;;;;;;5077096;28;20056;-61
2023/04/08 07:56:43;;;;;;;15.07;6.43;;;8.30;99.90;;;;;;5088831;28;20044;-61
2023/04/08 07:59:10;;;;;;;16.48;6.38;;;8.30;99.90;;;;;;5088122;28;20523;-60
2023/04/08 08:01:37;;;;;;;13.23;6.07;;;8.50;99.90;;;;;;5088689;28;20079;-60
2023/04/08 08:04:04;;;;;;;18.98;5.60;;;8.50;99.90;;;;;;5087778;28;20052;-60
2023/04/08 08:06:31;;;;;;;15.50;5.63;;;8.60;99.90;;;;;;5087845;28;20663;-60
2023/04/08 08:08:59;;;;;;;14.88;6.45;;;8.70;99.90;;;;;;5086670;28;20044;-61
2023/04/08 08:11:26;;;;;;;13.23;4.80;;;8.70;99.90;;;;;;5087319;28;20072;-61
2023/04/08 08:13:53;;;;;;;17.85;6.25;;;8.80;99.90;;;;;;5086090;28;20127;-59
2023/04/08 08:16:20;;;;;;;9.65;5.50;;;8.90;99.90;;;;;;5089079;28;20113;-60
2023/04/08 08:18:47;;;;;;;13.02;5.10;;;9.00;99.90;;;;;;5089635;28;20079;-59
2023/04/08 08:21:16;;;;;;;14.60;6.40;;;9.00;99.90;;;;;;5092404;28;20446;-61
2023/04/08 08:23:43;;;;;;;13.68;6.18;;;9.10;99.90;;;;;;5078827;28;20214;-61
2023/04/08 08:26:10;;;;;;;13.13;5.88;;;9.10;99.90;;;;;;5089282;28;20040;-61
2023/04/08 08:28:39;;;;;;;13.07;7.00;;;9.20;99.90;;;;;;5089935;28;20078;-61
2023/04/08 08:31:07;;;;;;;15.18;6.00;;;9.20;99.90;;;;;;5089187;28;20044;-61
2023/04/08 08:33:34;;;;;;;11.75;6.05;;;9.30;99.90;;;;;;5088969;28;20036;-61
2023/04/08 08:36:03;;;;;;;13.95;6.00;;;9.40;99.90;;;;;;5088048;28;20048;-60
2023/04/08 08:38:33;;;;;;;11.15;6.45;;;9.50;99.90;;;;;;5090317;28;20040;-60
2023/04/08 08:41:00;;;;;;;20.88;6.78;;;9.70;99.90;;;;;;5090468;28;20434;-60
2023/04/08 08:43:27;;;;;;;16.13;6.50;;;9.70;99.90;;;;;;5089517;28;20079;-60
2023/04/08 08:45:54;;;;;;;15.23;6.57;;;9.80;99.90;;;;;;5088666;28;20060;-61
2023/04/08 08:48:21;;;;;;;13.48;7.45;;;9.80;99.90;;;;;;5090192;28;20142;-60
2023/04/08 08:50:48;;;;;;;14.88;7.72;;;9.90;99.90;;;;;;5090049;28;20044;-63
2023/04/08 08:53:15;;;;;;;16.63;6.00;;;10.00;99.90;;;;;;5090146;28;20044;-59
2023/04/08 08:55:41;;;;;;;18.58;7.60;;;10.10;99.90;;;;;;5068760;28;20053;-61
2023/04/08 08:58:11;;;;;;;18.08;6.47;;;10.40;99.90;;;;;;5087128;28;20064;-60
2023/04/08 09:00:43;;;;;;;12.50;4.75;;;10.60;99.90;;;;;;5088120;28;20046;-58
2023/04/08 09:03:15;;;;;;;10.63;4.63;;;10.60;99.90;;;;;;5090018;28;20048;-57
2023/04/08 09:05:48;;;;;;;8.63;4.20;;;10.80;99.90;;;;;;5089661;28;20056;-59
2023/04/08 09:08:31;;;;;;;12.67;5.27;;;10.90;99.90;;;;;;5089737;28;20048;-58
2023/04/08 09:11:17;;;;;;;12.10;4.32;;;11.00;99.90;;;;;;5087990;28;20040;-58
2023/04/08 09:13:44;;;;;;;9.95;4.57;;;11.10;99.90;;;;;;5086967;28;20586;-58
2023/04/08 09:16:13;;;;;;;12.88;5.30;;;11.10;99.90;;;;;;5090001;28;20080;-60
2023/04/08 09:18:43;;;;;;;16.80;5.43;;;11.10;99.90;;;;;;5088538;28;20044;-58
2023/04/08 09:21:11;;;;;;;9.82;5.05;;;11.10;99.90;;;;;;5089860;28;20042;-59
2023/04/08 09:23:39;;;;;;;8.32;4.95;;;11.20;99.90;;;;;;5088460;28;20048;-59
2023/04/08 09:26:09;;;;;;;7.80;4.72;;;11.20;99.90;;;;;;5089665;28;20055;-60
2023/04/08 09:28:36;;;;;;;9.00;4.35;;;11.40;99.90;;;;;;5088739;28;20051;-60
2023/04/08 09:31:26;;;;;;;8.82;4.30;;;11.70;99.90;;;;;;5089058;28;20134;-59
2023/04/08 09:33:56;;;;;;;9.15;4.28;;;11.70;99.90;;;;;;5088807;28;20055;-60
2023/04/08 09:36:25;;;;;;;6.68;3.70;;;11.90;99.90;;;;;;5089548;28;20044;-58
2023/04/08 09:38:53;;;;;;;11.02;3.28;;;12.30;99.90;;;;;;5087623;28;20302;-59
2023/04/08 09:41:22;;;;;;;7.03;2.88;;;12.80;99.90;;;;;;5087529;28;20044;-59
2023/04/08 09:43:55;;;;;;;3.28;2.20;;;13.00;99.90;;;;;;5087932;28;20052;-61
2023/04/08 09:46:28;;;;;;;5.72;2.92;;;12.90;99.90;;;;;;5086949;28;20044;-60
2023/04/08 09:49:12;;;;;;;7.38;3.33;;;12.90;99.90;;;;;;5087478;28;20554;-60
2023/04/08 09:51:56;;;;;;;10.48;4.05;;;12.90;99.90;;;;;;5086276;28;20070;-58
2023/04/08 09:54:23;;;;;;;13.50;3.47;;;13.10;99.90;;;;;;5087604;28;20051;-60
2023/04/08 09:56:57;;;;;;;10.07;4.35;;;13.00;99.90;;;;;;5088141;28;20044;-60
2023/04/08 09:59:26;;;;;;;5.15;2.97;;;12.90;99.90;;;;;;5088135;28;20123;-59
2023/04/08 10:01:53;;;;;;;10.65;5.32;;;12.80;99.90;;;;;;5088168;28;20086;-60
2023/04/08 10:04:21;;;;;;;6.68;2.72;;;12.70;99.90;;;;;;5088593;28;20052;-60
2023/04/08 10:06:53;;;;;;;6.55;2.53;;;12.60;99.90;;;;;;5087947;28;20044;-59
2023/04/08 10:09:21;;;;;;;10.05;2.63;;;12.60;99.90;;;;;;5088338;28;20051;-61
2023/04/08 10:11:48;;;;;;;11.15;5.00;;;12.50;99.90;;;;;;5086229;28;20048;-62
2023/04/08 10:14:14;;;;;;;5.10;3.17;;;12.50;99.90;;;;;;5087893;28;20130;-61
2023/04/08 10:16:41;;;;;;;5.50;3.13;;;12.40;99.90;;;;;;4735569;27;10000379;-60
2023/04/08 10:19:45;;;;;;;11.43;3.63;;;12.40;99.90;;;;;;5088365;28;20040;-60
2023/04/08 10:22:47;;;;;;;5.53;3.17;;;12.40;99.90;;;;;;5088818;28;20078;-60
2023/04/08 10:25:15;;;;;;;12.25;4.03;;;12.50;99.90;;;;;;5084458;28;20042;-60
2023/04/08 10:27:43;;;;;;;10.43;3.97;;;12.60;99.90;;;;;;5085873;28;20105;-59
2023/04/08 10:30:30;;;;;;;10.52;4.13;;;12.50;99.90;;;;;;5083350;28;20139;-59
2023/04/08 10:33:00;;;;;;;8.23;4.35;;;12.70;99.90;;;;;;5085053;28;20044;-60
2023/04/08 10:35:40;;;;;;;9.85;4.07;;;12.80;99.90;;;;;;5083672;28;20110;-60
2023/04/08 10:38:08;;;;;;;9.10;4.82;;;12.90;99.90;;;;;;5085142;28;20392;-59
2023/04/08 10:40:38;;;;;;;8.50;4.18;;;13.00;99.90;;;;;;5085127;28;20068;-59
2023/04/08 10:43:05;;;;;;;10.35;4.18;;;13.00;99.90;;;;;;5084765;28;20048;-60
2023/04/08 10:45:32;;;;;;;8.48;3.80;;;13.00;99.90;;;;;;5084839;28;20048;-60
2023/04/08 10:48:21;;;;;;;10.70;4.22;;;12.90;99.90;;;;;;5085349;28;20076;-59
2023/04/08 10:50:59;;;;;;;10.93;4.40;;;12.90;99.90;;;;;;5083602;28;20552;-60
2023/04/08 10:53:38;;;;;;;14.80;5.18;;;13.00;99.90;;;;;;5085191;28;20109;-60
2023/04/08 10:56:11;;;;;;;9.82;4.72;;;13.00;99.90;;;;;;5087228;28;20483;-60
2023/04/08 10:58:48;;;;;;;10.10;4.03;;;13.10;99.90;;;;;;5088456;28;20515;-59
2023/04/08 11:01:16;;;;;;;11.27;4.38;;;13.10;99.90;;;;;;5086350;28;20044;-61
2023/04/08 11:03:43;;;;;;;9.52;4.80;;;13.20;99.90;;;;;;5087938;28;20044;-60
2023/04/08 11:06:10;;;;;;;11.40;5.03;;;13.20;99.90;;;;;;5086746;28;20044;-59
2023/04/08 11:08:37;;;;;;;8.15;3.72;;;13.20;99.90;;;;;;5086725;28;20085;-60
2023/04/08 11:11:10;;;;;;;7.22;4.15;;;13.20;99.90;;;;;;5087620;28;20139;-60
2023/04/08 11:13:41;;;;;;;8.48;3.85;;;13.40;99.90;;;;;;5086960;28;20117;-59
2023/04/08 11:16:19;;;;;;;5.60;3.70;;;13.50;99.90;;;;;;5087332;28;20491;-60
2023/04/08 11:18:46;;;;;;;8.32;3.72;;;13.60;99.90;;;;;;5086654;28;20127;-60
2023/04/08 11:21:14;;;;;;;5.25;3.63;;;13.60;99.90;;;;;;5087583;28;20048;-62
2023/04/08 11:23:41;;;;;;;6.82;3.30;;;13.70;99.90;;;;;;5084274;28;20082;-60
2023/04/08 11:26:08;;;;;;;9.90;3.63;;;13.70;99.90;;;;;;5087270;28;20629;-61
2023/04/08 11:28:35;;;;;;;6.40;3.05;;;13.60;99.90;;;;;;5087602;28;20086;-61
2023/04/08 11:31:03;;;;;;;6.82;3.47;;;13.50;99.90;;;;;;5070133;28;20044;-60
2023/04/08 11:33:30;;;;;;;4.32;2.83;;;13.60;99.90;;;;;;5085605;28;20044;-59
2023/04/08 11:36:00;;;;;;;15.68;4.07;;;13.70;99.90;;;;;;5087904;28;20040;-59
2023/04/08 11:38:28;;;;;;;8.88;3.65;;;13.70;99.90;;;;;;5085788;28;20040;-59
2023/04/08 11:40:58;;;;;;;13.57;5.05;;;13.70;99.90;;;;;;5087298;28;20055;-59
2023/04/08 11:43:25;;;;;;;7.18;3.15;;;13.80;99.90;;;;;;5086318;28;20067;-60
2023/04/08 11:45:52;;;;;;;4.80;3.15;;;14.00;99.90;;;;;;5086496;28;20121;-59
2023/04/08 11:48:18;;;;;;;7.80;2.90;;;14.00;99.90;;;;;;5085710;28;20078;-60
2023/04/08 11:50:45;;;;;;;10.32;3.17;;;14.00;99.90;;;;;;5087407;28;20044;-60
2023/04/08 11:53:24;;;;;;;7.00;3.72;;;14.00;99.90;;;;;;5086281;28;20040;-60
2023/04/08 11:55:57;;;;;;;6.05;3.53;;;14.00;99.90;;;;;;5075929;28;20355;-61
2023/04/08 11:58:24;;;;;;;6.47;2.60;;;13.90;99.90;;;;;;5085928;28;20109;-58
2023/04/08 12:00:51;;;;;;;5.45;2.72;;;13.80;99.90;;;;;;5069252;28;20435;-59
2023/04/08 12:03:18;;;;;;;9.73;3.42;;;13.70;99.90;;;;;;5085381;28;20051;-60
2023/04/08 12:05:45;;;;;;;8.60;4.05;;;13.70;99.90;;;;;;5087507;28;20035;-59
2023/04/08 12:08:12;;;;;;;6.82;2.63;;;13.70;99.90;;;;;;5087334;28;20121;-60
2023/04/08 12:10:38;;;;;;;10.57;3.20;;;13.60;99.90;;;;;;5086286;28;20487;-60
2023/04/08 12:13:05;;;;;;;4.78;3.05;;;13.70;99.90;;;;;;5085713;28;20044;-58
2023/04/08 12:15:32;;;;;;;7.03;3.22;;;13.70;99.90;;;;;;5087247;28;20082;-62
2023/04/08 12:17:59;;;;;;;8.05;3.22;;;13.70;99.90;;;;;;5085934;28;20078;-60
2023/04/08 12:20:26;;;;;;;8.30;2.97;;;13.70;99.90;;;;;;5086930;28;20438;-60
2023/04/08 12:22:53;;;;;;;9.05;3.22;;;13.70;99.90;;;;;;5086313;28;20047;-60
2023/04/08 12:25:20;;;;;;;6.63;3.03;;;13.60;99.90;;;;;;4734899;27;10000089;-60
2023/04/08 12:27:47;;;;;;;6.53;2.97;;;13.60;99.90;;;;;;5084025;28;20066;-59
2023/04/08 12:30:13;;;;;;;5.93;2.90;;;13.70;99.90;;;;;;5083236;28;20043;-59
2023/04/08 12:32:44;;;;;;;7.05;3.13;;;13.80;99.90;;;;;;5082990;28;20048;-59
2023/04/08 12:35:11;;;;;;;8.50;3.42;;;13.90;99.90;;;;;;5083347;28;20040;-60
2023/04/08 12:37:38;;;;;;;4.38;2.80;;;13.70;99.90;;;;;;5088019;28;20055;-62
2023/04/08 12:40:06;;;;;;;10.55;3.45;;;13.80;99.90;;;;;;5087248;28;20048;-60
2023/04/08 12:42:33;;;;;;;5.90;2.92;;;14.00;99.90;;;;;;5085877;28;20145;-59
2023/04/08 12:45:00;;;;;;;5.43;2.40;;;14.20;99.90;;;;;;5085262;28;20052;-60
2023/04/08 12:47:27;;;;;;;5.78;2.97;;;14.30;99.90;;;;;;5087286;28;20055;-59
2023/04/08 12:50:01;;;;;;;6.38;2.88;;;14.30;99.90;;;;;;5087239;28;20083;-61